sensor_id;sensor_type;location;lat;lon;timestamp;P1;durP1;ratioP1;P2;durP2;ratioP2
17235;SDS011;8734;59.272;17.780;2023-08-12T00:02:16;12.03;;;2.20;;
17235;SDS011;8734;59.272;17.780;2023-08-12T00:04:46;8.93;;;2.43;;
17235;SDS011;8734;59.272;17.780;2023-08-12T00:07:15;8.33;;;2.10;;
17235;SDS011;8734;59.272;17.780;2023-08-12T00:09:43;8.97;;;2.30;;
17235;SDS011;8734;59.272;17.780;2023-08-12T00:12:11;6.80;;;1.90;;
17235;SDS011;8734;59.272;17.780;2023-08-12T00:14:40;9.20;;;2.43;;
17235;SDS011;8734;59.272;17.780;2023-08-12T00:17:08;8.13;;;2.67;;
17235;SDS011;8734;59.272;17.780;2023-08-12T00:19:37;13.13;;;2.27;;
17235;SDS011;8734;59.272;17.780;2023-08-12T00:22:06;11.00;;;2.67;;
17235;SDS011;8734;59.272;17.780;2023-08-12T00:24:35;11.80;;;2.00;;
17235;SDS011;8734;59.272;17.780;2023-08-12T00:27:03;15.17;;;2.77;;
17235;SDS011;8734;59.272;17.780;2023-08-12T00:29:32;12.03;;;2.80;;
17235;SDS011;8734;59.272;17.780;2023-08-12T00:32:01;5.70;;;2.47;;
17235;SDS011;8734;59.272;17.780;2023-08-12T00:34:29;6.20;;;2.23;;
17235;SDS011;8734;59.272;17.780;2023-08-12T00:36:58;10.27;;;2.57;;
17235;SDS011;8734;59.272;17.780;2023-08-12T00:39:27;9.17;;;2.73;;
17235;SDS011;8734;59.272;17.780;2023-08-12T00:41:56;13.67;;;2.80;;
17235;SDS011;8734;59.272;17.780;2023-08-12T00:44:24;7.10;;;2.63;;
17235;SDS011;8734;59.272;17.780;2023-08-12T00:46:53;11.00;;;2.30;;
17235;SDS011;8734;59.272;17.780;2023-08-12T00:49:22;10.10;;;3.10;;
17235;SDS011;8734;59.272;17.780;2023-08-12T00:51:51;12.93;;;2.90;;
17235;SDS011;8734;59.272;17.780;2023-08-12T00:54:21;8.07;;;2.80;;
17235;SDS011;8734;59.272;17.780;2023-08-12T00:56:51;15.03;;;3.07;;
17235;SDS011;8734;59.272;17.780;2023-08-12T00:59:21;7.37;;;2.37;;
17235;SDS011;8734;59.272;17.780;2023-08-12T01:01:50;4.10;;;2.33;;
17235;SDS011;8734;59.272;17.780;2023-08-12T01:04:19;11.23;;;3.10;;
17235;SDS011;8734;59.272;17.780;2023-08-12T01:06:47;11.97;;;2.63;;
17235;SDS011;8734;59.272;17.780;2023-08-12T01:09:15;7.87;;;2.40;;
17235;SDS011;8734;59.272;17.780;2023-08-12T01:11:46;9.67;;;2.80;;
17235;SDS011;8734;59.272;17.780;2023-08-12T01:14:21;8.23;;;2.87;;
17235;SDS011;8734;59.272;17.780;2023-08-12T01:16:54;9.80;;;2.87;;
17235;SDS011;8734;59.272;17.780;2023-08-12T01:19:31;15.80;;;2.60;;
17235;SDS011;8734;59.272;17.780;2023-08-12T01:22:02;11.17;;;2.60;;
17235;SDS011;8734;59.272;17.780;2023-08-12T01:24:36;15.47;;;3.23;;
17235;SDS011;8734;59.272;17.780;2023-08-12T01:27:05;5.70;;;2.93;;
17235;SDS011;8734;59.272;17.780;2023-08-12T01:29:36;9.57;;;3.00;;
17235;SDS011;8734;59.272;17.780;2023-08-12T01:32:08;8.50;;;2.60;;
17235;SDS011;8734;59.272;17.780;2023-08-12T01:34:46;9.73;;;2.73;;
17235;SDS011;8734;59.272;17.780;2023-08-12T01:37:20;12.03;;;2.70;;
17235;SDS011;8734;59.272;17.780;2023-08-12T01:39:56;13.27;;;2.93;;
17235;SDS011;8734;59.272;17.780;2023-08-12T01:42:29;9.97;;;3.10;;
17235;SDS011;8734;59.272;17.780;2023-08-12T01:44:58;10.50;;;2.67;;
17235;SDS011;8734;59.272;17.780;2023-08-12T01:47:27;9.20;;;2.77;;
17235;SDS011;8734;59.272;17.780;2023-08-12T01:49:56;13.53;;;2.80;;
17235;SDS011;8734;59.272;17.780;2023-08-12T01:52:24;10.43;;;2.70;;
17235;SDS011;8734;59.272;17.780;2023-08-12T01:54:52;12.00;;;3.03;;
17235;SDS011;8734;59.272;17.780;2023-08-12T01:57:22;7.27;;;2.70;;
17235;SDS011;8734;59.272;17.780;2023-08-12T01:59:51;9.40;;;3.37;;
17235;SDS011;8734;59.272;17.780;2023-08-12T02:02:19;10.07;;;2.37;;
17235;SDS011;8734;59.272;17.780;2023-08-12T02:04:47;5.47;;;2.80;;
17235;SDS011;8734;59.272;17.780;2023-08-12T02:07:15;14.47;;;3.23;;
17235;SDS011;8734;59.272;17.780;2023-08-12T02:09:43;9.73;;;2.83;;
17235;SDS011;8734;59.272;17.780;2023-08-12T02:12:12;11.87;;;2.80;;
17235;SDS011;8734;59.272;17.780;2023-08-12T02:14:41;9.20;;;3.30;;
17235;SDS011;8734;59.272;17.780;2023-08-12T02:17:10;12.57;;;3.30;;
17235;SDS011;8734;59.272;17.780;2023-08-12T02:19:39;7.97;;;3.17;;
17235;SDS011;8734;59.272;17.780;2023-08-12T02:22:07;6.53;;;2.40;;
17235;SDS011;8734;59.272;17.780;2023-08-12T02:24:36;12.00;;;2.80;;
17235;SDS011;8734;59.272;17.780;2023-08-12T02:27:05;8.47;;;2.77;;
17235;SDS011;8734;59.272;17.780;2023-08-12T02:29:33;8.30;;;2.83;;
17235;SDS011;8734;59.272;17.780;2023-08-12T02:32:02;4.67;;;2.27;;
17235;SDS011;8734;59.272;17.780;2023-08-12T02:34:31;4.57;;;2.13;;
17235;SDS011;8734;59.272;17.780;2023-08-12T02:36:59;6.10;;;2.33;;
17235;SDS011;8734;59.272;17.780;2023-08-12T02:39:28;7.40;;;2.03;;
17235;SDS011;8734;59.272;17.780;2023-08-12T02:41:56;6.17;;;2.70;;
17235;SDS011;8734;59.272;17.780;2023-08-12T02:44:24;20.13;;;3.20;;
17235;SDS011;8734;59.272;17.780;2023-08-12T02:46:52;6.90;;;2.57;;
17235;SDS011;8734;59.272;17.780;2023-08-12T02:49:22;7.23;;;2.70;;
17235;SDS011;8734;59.272;17.780;2023-08-12T02:51:50;9.63;;;2.93;;
17235;SDS011;8734;59.272;17.780;2023-08-12T02:54:19;10.30;;;2.57;;
17235;SDS011;8734;59.272;17.780;2023-08-12T02:56:47;14.17;;;2.77;;
17235;SDS011;8734;59.272;17.780;2023-08-12T02:59:17;11.43;;;2.87;;
17235;SDS011;8734;59.272;17.780;2023-08-12T03:01:45;9.90;;;2.60;;
17235;SDS011;8734;59.272;17.780;2023-08-12T03:04:13;7.73;;;3.00;;
17235;SDS011;8734;59.272;17.780;2023-08-12T03:06:43;12.70;;;2.83;;
17235;SDS011;8734;59.272;17.780;2023-08-12T03:09:11;7.50;;;2.90;;
17235;SDS011;8734;59.272;17.780;2023-08-12T03:11:43;8.33;;;2.83;;
17235;SDS011;8734;59.272;17.780;2023-08-12T03:14:11;8.63;;;3.10;;
17235;SDS011;8734;59.272;17.780;2023-08-12T03:16:39;6.27;;;2.53;;
17235;SDS011;8734;59.272;17.780;2023-08-12T03:19:08;9.23;;;3.20;;
17235;SDS011;8734;59.272;17.780;2023-08-12T03:21:36;13.60;;;3.20;;
17235;SDS011;8734;59.272;17.780;2023-08-12T03:24:06;12.70;;;3.20;;
17235;SDS011;8734;59.272;17.780;2023-08-12T03:26:34;11.33;;;3.20;;
17235;SDS011;8734;59.272;17.780;2023-08-12T03:29:02;12.77;;;3.37;;
17235;SDS011;8734;59.272;17.780;2023-08-12T03:31:31;7.53;;;3.10;;
17235;SDS011;8734;59.272;17.780;2023-08-12T03:33:59;12.73;;;3.10;;
17235;SDS011;8734;59.272;17.780;2023-08-12T03:36:28;8.37;;;3.03;;
17235;SDS011;8734;59.272;17.780;2023-08-12T03:38:58;10.73;;;2.70;;
17235;SDS011;8734;59.272;17.780;2023-08-12T03:41:27;10.37;;;3.20;;
17235;SDS011;8734;59.272;17.780;2023-08-12T03:43:57;16.73;;;3.10;;
17235;SDS011;8734;59.272;17.780;2023-08-12T03:46:25;13.07;;;3.30;;
17235;SDS011;8734;59.272;17.780;2023-08-12T03:48:53;9.73;;;3.20;;
17235;SDS011;8734;59.272;17.780;2023-08-12T03:51:22;13.90;;;3.30;;
17235;SDS011;8734;59.272;17.780;2023-08-12T03:53:50;12.30;;;2.80;;
17235;SDS011;8734;59.272;17.780;2023-08-12T03:56:18;7.70;;;3.20;;
17235;SDS011;8734;59.272;17.780;2023-08-12T03:58:48;12.03;;;3.13;;
17235;SDS011;8734;59.272;17.780;2023-08-12T04:01:16;17.53;;;3.00;;
17235;SDS011;8734;59.272;17.780;2023-08-12T04:03:45;7.47;;;3.33;;
17235;SDS011;8734;59.272;17.780;2023-08-12T04:06:13;14.03;;;3.90;;
17235;SDS011;8734;59.272;17.780;2023-08-12T04:08:41;12.30;;;3.63;;
17235;SDS011;8734;59.272;17.780;2023-08-12T04:11:10;14.20;;;3.50;;
17235;SDS011;8734;59.272;17.780;2023-08-12T04:13:38;12.40;;;3.40;;
17235;SDS011;8734;59.272;17.780;2023-08-12T04:16:08;13.50;;;3.43;;
17235;SDS011;8734;59.272;17.780;2023-08-12T04:18:36;10.60;;;3.43;;
17235;SDS011;8734;59.272;17.780;2023-08-12T04:21:04;10.90;;;3.03;;
17235;SDS011;8734;59.272;17.780;2023-08-12T04:23:32;7.30;;;3.20;;
17235;SDS011;8734;59.272;17.780;2023-08-12T04:26:01;8.53;;;3.30;;
17235;SDS011;8734;59.272;17.780;2023-08-12T04:28:29;12.00;;;3.50;;
17235;SDS011;8734;59.272;17.780;2023-08-12T04:30:57;15.17;;;3.20;;
17235;SDS011;8734;59.272;17.780;2023-08-12T04:33:27;8.57;;;3.17;;
17235;SDS011;8734;59.272;17.780;2023-08-12T04:35:55;10.00;;;3.40;;
17235;SDS011;8734;59.272;17.780;2023-08-12T04:38:24;9.87;;;3.37;;
17235;SDS011;8734;59.272;17.780;2023-08-12T04:40:53;10.17;;;3.10;;
17235;SDS011;8734;59.272;17.780;2023-08-12T04:43:21;11.33;;;2.87;;
17235;SDS011;8734;59.272;17.780;2023-08-12T04:45:50;7.83;;;2.70;;
17235;SDS011;8734;59.272;17.780;2023-08-12T04:48:19;8.17;;;2.50;;
17235;SDS011;8734;59.272;17.780;2023-08-12T04:50:49;7.33;;;2.97;;
17235;SDS011;8734;59.272;17.780;2023-08-12T04:53:17;10.60;;;2.60;;
17235;SDS011;8734;59.272;17.780;2023-08-12T04:55:49;6.83;;;2.43;;
17235;SDS011;8734;59.272;17.780;2023-08-12T04:58:18;6.40;;;2.20;;
17235;SDS011;8734;59.272;17.780;2023-08-12T05:00:46;6.03;;;2.20;;
17235;SDS011;8734;59.272;17.780;2023-08-12T05:03:14;6.27;;;1.73;;
17235;SDS011;8734;59.272;17.780;2023-08-12T05:05:43;2.10;;;1.73;;
17235;SDS011;8734;59.272;17.780;2023-08-12T05:08:12;7.07;;;2.10;;
17235;SDS011;8734;59.272;17.780;2023-08-12T05:10:41;5.67;;;2.10;;
17235;SDS011;8734;59.272;17.780;2023-08-12T05:13:09;3.87;;;2.40;;
17235;SDS011;8734;59.272;17.780;2023-08-12T05:15:37;6.87;;;1.60;;
17235;SDS011;8734;59.272;17.780;2023-08-12T05:18:06;3.87;;;1.77;;
17235;SDS011;8734;59.272;17.780;2023-08-12T05:20:34;3.70;;;1.50;;
17235;SDS011;8734;59.272;17.780;2023-08-12T05:23:03;3.07;;;1.70;;
17235;SDS011;8734;59.272;17.780;2023-08-12T05:25:32;10.60;;;2.17;;
17235;SDS011;8734;59.272;17.780;2023-08-12T05:28:01;5.97;;;1.50;;
17235;SDS011;8734;59.272;17.780;2023-08-12T05:30:30;4.40;;;1.73;;
17235;SDS011;8734;59.272;17.780;2023-08-12T05:32:58;4.87;;;1.53;;
17235;SDS011;8734;59.272;17.780;2023-08-12T05:35:27;7.90;;;1.60;;
17235;SDS011;8734;59.272;17.780;2023-08-12T05:37:55;8.47;;;1.40;;
17235;SDS011;8734;59.272;17.780;2023-08-12T05:40:23;4.77;;;1.47;;
17235;SDS011;8734;59.272;17.780;2023-08-12T05:42:53;4.27;;;1.20;;
17235;SDS011;8734;59.272;17.780;2023-08-12T05:45:22;7.20;;;1.63;;
17235;SDS011;8734;59.272;17.780;2023-08-12T05:47:50;2.27;;;1.47;;
17235;SDS011;8734;59.272;17.780;2023-08-12T05:50:19;4.70;;;1.33;;
17235;SDS011;8734;59.272;17.780;2023-08-12T05:52:47;3.77;;;0.90;;
17235;SDS011;8734;59.272;17.780;2023-08-12T05:55:15;4.57;;;1.30;;
17235;SDS011;8734;59.272;17.780;2023-08-12T05:57:44;11.47;;;1.63;;
17235;SDS011;8734;59.272;17.780;2023-08-12T06:00:13;2.80;;;1.20;;
17235;SDS011;8734;59.272;17.780;2023-08-12T06:02:42;2.63;;;1.20;;
17235;SDS011;8734;59.272;17.780;2023-08-12T06:05:10;3.73;;;1.33;;
17235;SDS011;8734;59.272;17.780;2023-08-12T06:07:39;2.67;;;1.37;;
17235;SDS011;8734;59.272;17.780;2023-08-12T06:10:07;6.63;;;1.30;;
17235;SDS011;8734;59.272;17.780;2023-08-12T06:12:36;4.50;;;1.27;;
17235;SDS011;8734;59.272;17.780;2023-08-12T06:15:05;5.97;;;1.20;;
17235;SDS011;8734;59.272;17.780;2023-08-12T06:17:35;5.23;;;1.23;;
17235;SDS011;8734;59.272;17.780;2023-08-12T06:20:04;4.13;;;1.90;;
17235;SDS011;8734;59.272;17.780;2023-08-12T06:22:33;1.77;;;0.90;;
17235;SDS011;8734;59.272;17.780;2023-08-12T06:25:01;5.80;;;1.33;;
17235;SDS011;8734;59.272;17.780;2023-08-12T06:27:30;4.53;;;1.20;;
17235;SDS011;8734;59.272;17.780;2023-08-12T06:29:58;4.37;;;1.27;;
17235;SDS011;8734;59.272;17.780;2023-08-12T06:32:26;8.23;;;1.20;;
17235;SDS011;8734;59.272;17.780;2023-08-12T06:34:56;5.90;;;2.00;;
17235;SDS011;8734;59.272;17.780;2023-08-12T06:37:24;5.57;;;1.30;;
17235;SDS011;8734;59.272;17.780;2023-08-12T06:39:53;2.13;;;0.97;;
17235;SDS011;8734;59.272;17.780;2023-08-12T06:42:21;5.37;;;1.07;;
17235;SDS011;8734;59.272;17.780;2023-08-12T06:44:54;4.43;;;1.07;;
17235;SDS011;8734;59.272;17.780;2023-08-12T06:47:23;4.20;;;0.93;;
17235;SDS011;8734;59.272;17.780;2023-08-12T06:49:52;2.07;;;0.93;;
17235;SDS011;8734;59.272;17.780;2023-08-12T06:52:22;13.57;;;1.90;;
17235;SDS011;8734;59.272;17.780;2023-08-12T06:54:51;3.47;;;1.00;;
17235;SDS011;8734;59.272;17.780;2023-08-12T06:57:19;5.37;;;1.40;;
17235;SDS011;8734;59.272;17.780;2023-08-12T06:59:47;4.53;;;1.23;;
17235;SDS011;8734;59.272;17.780;2023-08-12T07:02:16;2.10;;;1.03;;
17235;SDS011;8734;59.272;17.780;2023-08-12T07:04:44;2.80;;;1.07;;
17235;SDS011;8734;59.272;17.780;2023-08-12T07:07:12;2.97;;;0.93;;
17235;SDS011;8734;59.272;17.780;2023-08-12T07:09:42;6.03;;;1.23;;
17235;SDS011;8734;59.272;17.780;2023-08-12T07:12:10;5.30;;;1.53;;
17235;SDS011;8734;59.272;17.780;2023-08-12T07:14:39;5.13;;;1.10;;
17235;SDS011;8734;59.272;17.780;2023-08-12T07:17:07;4.73;;;1.17;;
17235;SDS011;8734;59.272;17.780;2023-08-12T07:19:35;5.93;;;1.37;;
17235;SDS011;8734;59.272;17.780;2023-08-12T07:22:04;4.90;;;1.53;;
17235;SDS011;8734;59.272;17.780;2023-08-12T07:24:32;1.57;;;1.00;;
17235;SDS011;8734;59.272;17.780;2023-08-12T07:27:02;2.70;;;1.07;;
17235;SDS011;8734;59.272;17.780;2023-08-12T07:29:33;2.53;;;0.90;;
17235;SDS011;8734;59.272;17.780;2023-08-12T07:32:01;8.03;;;1.10;;
17235;SDS011;8734;59.272;17.780;2023-08-12T07:34:30;4.30;;;1.00;;
17235;SDS011;8734;59.272;17.780;2023-08-12T07:36:58;2.23;;;1.20;;
17235;SDS011;8734;59.272;17.780;2023-08-12T07:39:26;4.13;;;1.17;;
17235;SDS011;8734;59.272;17.780;2023-08-12T07:41:55;5.67;;;1.10;;
17235;SDS011;8734;59.272;17.780;2023-08-12T07:44:24;4.07;;;0.87;;
17235;SDS011;8734;59.272;17.780;2023-08-12T07:46:53;5.13;;;1.87;;
17235;SDS011;8734;59.272;17.780;2023-08-12T07:49:21;3.93;;;1.10;;
17235;SDS011;8734;59.272;17.780;2023-08-12T07:51:49;2.23;;;0.70;;
17235;SDS011;8734;59.272;17.780;2023-08-12T07:54:18;5.60;;;1.20;;
17235;SDS011;8734;59.272;17.780;2023-08-12T07:56:46;3.50;;;1.40;;
17235;SDS011;8734;59.272;17.780;2023-08-12T07:59:14;2.37;;;1.03;;
17235;SDS011;8734;59.272;17.780;2023-08-12T08:01:45;2.67;;;1.07;;
17235;SDS011;8734;59.272;17.780;2023-08-12T08:04:13;2.00;;;1.00;;
17235;SDS011;8734;59.272;17.780;2023-08-12T08:06:41;3.33;;;1.07;;
17235;SDS011;8734;59.272;17.780;2023-08-12T08:09:10;5.20;;;1.20;;
17235;SDS011;8734;59.272;17.780;2023-08-12T08:11:38;2.73;;;0.93;;
17235;SDS011;8734;59.272;17.780;2023-08-12T08:14:06;3.07;;;0.80;;
17235;SDS011;8734;59.272;17.780;2023-08-12T08:16:35;6.27;;;1.07;;
17235;SDS011;8734;59.272;17.780;2023-08-12T08:19:08;3.93;;;1.27;;
17235;SDS011;8734;59.272;17.780;2023-08-12T08:21:39;3.63;;;1.27;;
17235;SDS011;8734;59.272;17.780;2023-08-12T08:24:07;8.07;;;1.20;;
17235;SDS011;8734;59.272;17.780;2023-08-12T08:26:38;5.80;;;1.10;;
17235;SDS011;8734;59.272;17.780;2023-08-12T08:29:07;3.33;;;1.30;;
17235;SDS011;8734;59.272;17.780;2023-08-12T08:31:35;2.13;;;1.00;;
17235;SDS011;8734;59.272;17.780;2023-08-12T08:34:03;2.77;;;1.00;;
17235;SDS011;8734;59.272;17.780;2023-08-12T08:36:33;3.37;;;1.20;;
17235;SDS011;8734;59.272;17.780;2023-08-12T08:39:01;3.93;;;1.03;;
17235;SDS011;8734;59.272;17.780;2023-08-12T08:41:30;2.47;;;1.10;;
17235;SDS011;8734;59.272;17.780;2023-08-12T08:44:00;6.07;;;1.00;;
17235;SDS011;8734;59.272;17.780;2023-08-12T08:46:30;6.33;;;1.43;;
17235;SDS011;8734;59.272;17.780;2023-08-12T08:48:59;1.67;;;1.00;;
17235;SDS011;8734;59.272;17.780;2023-08-12T08:51:27;1.97;;;0.83;;
17235;SDS011;8734;59.272;17.780;2023-08-12T08:53:59;2.80;;;1.10;;
17235;SDS011;8734;59.272;17.780;2023-08-12T08:56:30;1.60;;;0.90;;
17235;SDS011;8734;59.272;17.780;2023-08-12T08:59:02;1.93;;;1.10;;
17235;SDS011;8734;59.272;17.780;2023-08-12T09:01:31;2.60;;;1.10;;
17235;SDS011;8734;59.272;17.780;2023-08-12T09:03:59;2.97;;;1.00;;
17235;SDS011;8734;59.272;17.780;2023-08-12T09:06:29;3.23;;;1.13;;
17235;SDS011;8734;59.272;17.780;2023-08-12T09:09:01;5.20;;;1.10;;
17235;SDS011;8734;59.272;17.780;2023-08-12T09:11:31;7.50;;;1.50;;
17235;SDS011;8734;59.272;17.780;2023-08-12T09:14:02;5.27;;;1.03;;
17235;SDS011;8734;59.272;17.780;2023-08-12T09:16:30;1.97;;;0.80;;
17235;SDS011;8734;59.272;17.780;2023-08-12T09:18:59;2.20;;;1.13;;
17235;SDS011;8734;59.272;17.780;2023-08-12T09:21:28;1.27;;;0.70;;
17235;SDS011;8734;59.272;17.780;2023-08-12T09:23:56;2.93;;;0.80;;
17235;SDS011;8734;59.272;17.780;2023-08-12T09:26:31;2.03;;;0.93;;
17235;SDS011;8734;59.272;17.780;2023-08-12T09:28:59;1.93;;;1.10;;
17235;SDS011;8734;59.272;17.780;2023-08-12T09:31:28;1.67;;;0.70;;
17235;SDS011;8734;59.272;17.780;2023-08-12T09:33:59;5.00;;;0.90;;
17235;SDS011;8734;59.272;17.780;2023-08-12T09:36:31;2.87;;;0.80;;
17235;SDS011;8734;59.272;17.780;2023-08-12T09:38:59;1.60;;;0.83;;
17235;SDS011;8734;59.272;17.780;2023-08-12T09:41:34;2.97;;;0.93;;
17235;SDS011;8734;59.272;17.780;2023-08-12T09:44:03;5.17;;;1.20;;
17235;SDS011;8734;59.272;17.780;2023-08-12T09:46:32;2.00;;;1.23;;
17235;SDS011;8734;59.272;17.780;2023-08-12T09:49:00;5.87;;;1.10;;
17235;SDS011;8734;59.272;17.780;2023-08-12T09:51:33;2.40;;;1.03;;
17235;SDS011;8734;59.272;17.780;2023-08-12T09:54:03;2.17;;;0.90;;
17235;SDS011;8734;59.272;17.780;2023-08-12T09:56:35;1.53;;;1.10;;
17235;SDS011;8734;59.272;17.780;2023-08-12T09:59:04;2.73;;;1.23;;
17235;SDS011;8734;59.272;17.780;2023-08-12T10:01:34;3.80;;;0.77;;
17235;SDS011;8734;59.272;17.780;2023-08-12T10:04:04;1.57;;;0.93;;
17235;SDS011;8734;59.272;17.780;2023-08-12T10:06:37;2.60;;;0.93;;
17235;SDS011;8734;59.272;17.780;2023-08-12T10:09:06;3.00;;;0.93;;
17235;SDS011;8734;59.272;17.780;2023-08-12T10:11:37;2.33;;;1.10;;
17235;SDS011;8734;59.272;17.780;2023-08-12T10:14:06;3.37;;;1.17;;
17235;SDS011;8734;59.272;17.780;2023-08-12T10:16:36;4.30;;;1.10;;
17235;SDS011;8734;59.272;17.780;2023-08-12T10:19:05;3.17;;;1.00;;
17235;SDS011;8734;59.272;17.780;2023-08-12T10:21:33;5.03;;;1.10;;
17235;SDS011;8734;59.272;17.780;2023-08-12T10:24:02;1.17;;;1.07;;
17235;SDS011;8734;59.272;17.780;2023-08-12T10:26:31;3.37;;;1.00;;
17235;SDS011;8734;59.272;17.780;2023-08-12T10:29:01;3.90;;;1.10;;
17235;SDS011;8734;59.272;17.780;2023-08-12T10:31:30;3.90;;;1.30;;
17235;SDS011;8734;59.272;17.780;2023-08-12T10:33:59;3.50;;;1.23;;
17235;SDS011;8734;59.272;17.780;2023-08-12T10:36:27;2.40;;;1.00;;
17235;SDS011;8734;59.272;17.780;2023-08-12T10:38:56;2.80;;;0.90;;
17235;SDS011;8734;59.272;17.780;2023-08-12T10:41:24;3.83;;;1.30;;
17235;SDS011;8734;59.272;17.780;2023-08-12T10:43:54;2.30;;;1.30;;
17235;SDS011;8734;59.272;17.780;2023-08-12T10:46:31;1.80;;;0.90;;
17235;SDS011;8734;59.272;17.780;2023-08-12T10:49:04;3.93;;;1.10;;
17235;SDS011;8734;59.272;17.780;2023-08-12T10:51:41;4.50;;;0.90;;
17235;SDS011;8734;59.272;17.780;2023-08-12T10:54:15;6.53;;;1.47;;
17235;SDS011;8734;59.272;17.780;2023-08-12T10:59:53;3.27;;;1.13;;
17235;SDS011;8734;59.272;17.780;2023-08-12T11:02:25;3.83;;;1.27;;
17235;SDS011;8734;59.272;17.780;2023-08-12T11:04:56;2.77;;;1.00;;
17235;SDS011;8734;59.272;17.780;2023-08-12T11:07:28;2.97;;;1.10;;
17235;SDS011;8734;59.272;17.780;2023-08-12T11:10:05;3.83;;;1.10;;
17235;SDS011;8734;59.272;17.780;2023-08-12T11:12:39;1.50;;;0.70;;
17235;SDS011;8734;59.272;17.780;2023-08-12T11:15:08;3.77;;;1.20;;
17235;SDS011;8734;59.272;17.780;2023-08-12T11:17:40;1.83;;;1.20;;
17235;SDS011;8734;59.272;17.780;2023-08-12T11:20:10;4.80;;;1.20;;
17235;SDS011;8734;59.272;17.780;2023-08-12T11:22:40;3.23;;;1.10;;
17235;SDS011;8734;59.272;17.780;2023-08-12T11:25:10;2.80;;;1.43;;
17235;SDS011;8734;59.272;17.780;2023-08-12T11:27:40;4.83;;;1.80;;
17235;SDS011;8734;59.272;17.780;2023-08-12T11:30:11;7.13;;;1.40;;
17235;SDS011;8734;59.272;17.780;2023-08-12T11:32:43;2.30;;;1.10;;
17235;SDS011;8734;59.272;17.780;2023-08-12T11:35:14;3.17;;;1.60;;
17235;SDS011;8734;59.272;17.780;2023-08-12T11:37:44;9.63;;;1.60;;
17235;SDS011;8734;59.272;17.780;2023-08-12T11:40:15;3.30;;;1.30;;
17235;SDS011;8734;59.272;17.780;2023-08-12T11:42:44;8.43;;;1.80;;
17235;SDS011;8734;59.272;17.780;2023-08-12T11:45:14;8.30;;;2.17;;
17235;SDS011;8734;59.272;17.780;2023-08-12T11:47:45;3.80;;;1.40;;
17235;SDS011;8734;59.272;17.780;2023-08-12T11:50:20;8.33;;;1.40;;
17235;SDS011;8734;59.272;17.780;2023-08-12T11:52:49;2.43;;;1.20;;
17235;SDS011;8734;59.272;17.780;2023-08-12T11:55:18;3.00;;;1.87;;
17235;SDS011;8734;59.272;17.780;2023-08-12T11:57:47;6.07;;;1.73;;
17235;SDS011;8734;59.272;17.780;2023-08-12T12:00:15;3.83;;;1.50;;
17235;SDS011;8734;59.272;17.780;2023-08-12T12:02:47;3.50;;;1.70;;
17235;SDS011;8734;59.272;17.780;2023-08-12T12:05:17;3.10;;;1.53;;
17235;SDS011;8734;59.272;17.780;2023-08-12T12:07:49;7.33;;;1.60;;
17235;SDS011;8734;59.272;17.780;2023-08-12T12:10:20;3.53;;;1.50;;
17235;SDS011;8734;59.272;17.780;2023-08-12T12:12:49;8.23;;;1.70;;
17235;SDS011;8734;59.272;17.780;2023-08-12T12:15:17;4.57;;;1.50;;
17235;SDS011;8734;59.272;17.780;2023-08-12T12:17:47;8.97;;;1.60;;
17235;SDS011;8734;59.272;17.780;2023-08-12T12:20:16;2.03;;;1.43;;
17235;SDS011;8734;59.272;17.780;2023-08-12T12:22:46;5.03;;;1.60;;
17235;SDS011;8734;59.272;17.780;2023-08-12T12:25:16;8.43;;;2.80;;
17235;SDS011;8734;59.272;17.780;2023-08-12T12:27:46;4.03;;;1.57;;
17235;SDS011;8734;59.272;17.780;2023-08-12T12:30:15;2.00;;;1.37;;
17235;SDS011;8734;59.272;17.780;2023-08-12T12:32:46;2.20;;;1.27;;
17235;SDS011;8734;59.272;17.780;2023-08-12T12:35:15;3.47;;;1.30;;
17235;SDS011;8734;59.272;17.780;2023-08-12T12:37:43;2.80;;;1.17;;
17235;SDS011;8734;59.272;17.780;2023-08-12T12:40:12;6.30;;;1.70;;
17235;SDS011;8734;59.272;17.780;2023-08-12T12:42:40;2.27;;;1.33;;
17235;SDS011;8734;59.272;17.780;2023-08-12T12:45:09;8.00;;;1.70;;
17235;SDS011;8734;59.272;17.780;2023-08-12T12:47:37;4.20;;;2.00;;
17235;SDS011;8734;59.272;17.780;2023-08-12T12:50:07;2.90;;;1.50;;
17235;SDS011;8734;59.272;17.780;2023-08-12T12:52:36;3.17;;;1.40;;
17235;SDS011;8734;59.272;17.780;2023-08-12T12:55:04;4.70;;;1.57;;
17235;SDS011;8734;59.272;17.780;2023-08-12T12:57:33;4.97;;;1.70;;
17235;SDS011;8734;59.272;17.780;2023-08-12T13:00:01;4.20;;;1.30;;
17235;SDS011;8734;59.272;17.780;2023-08-12T13:02:31;2.43;;;1.40;;
17235;SDS011;8734;59.272;17.780;2023-08-12T13:04:59;1.97;;;1.50;;
17235;SDS011;8734;59.272;17.780;2023-08-12T13:07:29;2.13;;;1.33;;
17235;SDS011;8734;59.272;17.780;2023-08-12T13:09:57;1.60;;;1.17;;
17235;SDS011;8734;59.272;17.780;2023-08-12T13:12:26;4.37;;;1.47;;
17235;SDS011;8734;59.272;17.780;2023-08-12T13:14:54;3.90;;;1.57;;
17235;SDS011;8734;59.272;17.780;2023-08-12T13:17:22;3.10;;;1.50;;
17235;SDS011;8734;59.272;17.780;2023-08-12T13:19:51;3.77;;;1.50;;
17235;SDS011;8734;59.272;17.780;2023-08-12T13:22:20;2.43;;;1.23;;
17235;SDS011;8734;59.272;17.780;2023-08-12T13:24:50;5.40;;;1.60;;
17235;SDS011;8734;59.272;17.780;2023-08-12T13:27:18;5.37;;;2.20;;
17235;SDS011;8734;59.272;17.780;2023-08-12T13:29:47;3.10;;;1.03;;
17235;SDS011;8734;59.272;17.780;2023-08-12T13:32:15;4.80;;;1.67;;
17235;SDS011;8734;59.272;17.780;2023-08-12T13:34:43;7.23;;;1.60;;
17235;SDS011;8734;59.272;17.780;2023-08-12T13:37:14;2.77;;;1.40;;
17235;SDS011;8734;59.272;17.780;2023-08-12T13:39:42;3.33;;;1.20;;
17235;SDS011;8734;59.272;17.780;2023-08-12T13:42:12;2.87;;;1.50;;
17235;SDS011;8734;59.272;17.780;2023-08-12T13:44:41;2.23;;;1.20;;
17235;SDS011;8734;59.272;17.780;2023-08-12T13:47:09;3.23;;;1.63;;
17235;SDS011;8734;59.272;17.780;2023-08-12T13:49:37;4.53;;;1.40;;
17235;SDS011;8734;59.272;17.780;2023-08-12T13:52:05;7.13;;;1.60;;
17235;SDS011;8734;59.272;17.780;2023-08-12T13:54:34;5.23;;;1.30;;
17235;SDS011;8734;59.272;17.780;2023-08-12T13:57:02;2.73;;;1.30;;
17235;SDS011;8734;59.272;17.780;2023-08-12T13:59:32;7.57;;;1.70;;
17235;SDS011;8734;59.272;17.780;2023-08-12T14:02:01;4.87;;;1.50;;
17235;SDS011;8734;59.272;17.780;2023-08-12T14:04:29;4.60;;;1.53;;
17235;SDS011;8734;59.272;17.780;2023-08-12T14:06:57;5.07;;;1.67;;
17235;SDS011;8734;59.272;17.780;2023-08-12T14:09:26;5.17;;;1.33;;
17235;SDS011;8734;59.272;17.780;2023-08-12T14:11:54;4.93;;;1.57;;
17235;SDS011;8734;59.272;17.780;2023-08-12T14:14:23;2.73;;;1.50;;
17235;SDS011;8734;59.272;17.780;2023-08-12T14:16:55;4.27;;;1.37;;
17235;SDS011;8734;59.272;17.780;2023-08-12T14:19:23;4.47;;;1.40;;
17235;SDS011;8734;59.272;17.780;2023-08-12T14:21:52;2.80;;;1.47;;
17235;SDS011;8734;59.272;17.780;2023-08-12T14:24:20;2.00;;;0.87;;
17235;SDS011;8734;59.272;17.780;2023-08-12T14:26:48;3.33;;;1.10;;
17235;SDS011;8734;59.272;17.780;2023-08-12T14:29:17;2.97;;;1.10;;
17235;SDS011;8734;59.272;17.780;2023-08-12T14:31:45;5.30;;;1.60;;
17235;SDS011;8734;59.272;17.780;2023-08-12T14:34:14;2.87;;;1.10;;
17235;SDS011;8734;59.272;17.780;2023-08-12T14:36:43;4.57;;;1.60;;
17235;SDS011;8734;59.272;17.780;2023-08-12T14:39:11;3.67;;;1.20;;
17235;SDS011;8734;59.272;17.780;2023-08-12T14:41:39;5.00;;;1.10;;
17235;SDS011;8734;59.272;17.780;2023-08-12T14:44:07;3.73;;;1.30;;
17235;SDS011;8734;59.272;17.780;2023-08-12T14:46:36;5.63;;;1.47;;
17235;SDS011;8734;59.272;17.780;2023-08-12T14:49:04;2.83;;;1.00;;
17235;SDS011;8734;59.272;17.780;2023-08-12T14:51:34;3.90;;;1.37;;
17235;SDS011;8734;59.272;17.780;2023-08-12T14:54:02;2.70;;;1.20;;
17235;SDS011;8734;59.272;17.780;2023-08-12T14:56:31;4.20;;;1.23;;
17235;SDS011;8734;59.272;17.780;2023-08-12T14:58:59;4.77;;;1.27;;
17235;SDS011;8734;59.272;17.780;2023-08-12T15:01:28;2.57;;;1.00;;